Mount Sterling, KY

5:29 PM EST on January 30, 2015 (GMT -0500)
Mount Sterling-Montgomery County | Change Station
CLOSE
Current Station
Airport
Location: Mount Sterling,
Elevation: 1020 ft
Nearby Weather Stations

Elev 1020 ft 38.06 °N, 83.98 °W | Updated 14 minutes ago

Clear
Clear
32 °F
Feels Like 25 °F
N
8
Wind Variable Wind from North

Today
High -- | Low -- °F
--% Chance of Precip.
Yesterday
High -- | Low -- °F
Precip. -- in
7:42 AM 5:56 PM
Waxing Gibbous, 85% visible
Pressure 30.43 in
Visibility 10.0 miles
Clouds Clear
Windchill 25 °F
Dew Point 18 °F
Humidity 55%
Rainfall 0.00 in
Snow Depth Not available.
UV 0 out of 12
Pollen .10 out of 12
Air Quality Not available.
Flu Activity Not available.
METAR KIOB 302215Z AUTO 35007KT 10SM CLR 00/M08 A3043 RMK AO2

More Conditions Fewer Conditions

Pressure 30.43 in
Visibility 10.0 miles
Clouds Clear
Windchill 25 °F
Dew Point 18 °F
Humidity 55%
Rainfall 0.00 in
Snow Depth Not available.
UV 0 out of 12
Pollen .10 out of 12
Air Quality Not available.
Flu Activity Not available.
METAR KIOB 302215Z AUTO 35007KT 10SM CLR 00/M08 A3043 RMK AO2

More Conditions Fewer Conditions

10-Day Weather Forecast

Almanac

Astronomy

Jan. 30, 2015 Rise Set
Actual Time
Civil Twilight
Nautical Twilight
Astronomical Twilight
Moon
Length of Visible Light
Length of Day
Tomorrow will be .
, % of the Moon is Illuminated

Today's Extremes

State Highs State Lows

Community

WunderPhotos

Upload Photos

1,791,904 photos uploaded!

WunderBlogs® & News

Nearby

Air Quality

  Air Quality AQ Index Pollutant
Not available.

Snow Depth

Station Depth Elevation

Earthquake Activity

City Distance Mag. Time & Date
Minimum magnitude displayed is 2.5.

Coastal Water Temperatures

Place Temperature

Nearby Weather Stations